Time;durP1;ratioP1;P1;durP2;ratioP2;P2;SDS_P1;SDS_P2;PMS_P1;PMS_P2;Temp;Humidity;BMP_temperature;BMP_pressure;BME280_temperature;BME280_humidity;BME280_pressure;Samples;Min_cycle;Max_cycle;Signal;HPM_P1;HPM_P2
2023/08/18 00:01:36;;;;;;;8.23;5.78;;;;;;;;;;10288652;28;20073;-69
2023/08/18 00:06:44;;;;;;;8.35;5.82;;;;;;;;;;10292253;28;20071;-69
2023/08/18 00:11:44;;;;;;;10.75;6.07;;;;;;;;;;10295947;28;20084;-69
2023/08/18 00:16:42;;;;;;;11.20;6.15;;;;;;;;;;10299274;28;20144;-69
2023/08/18 00:21:41;;;;;;;12.20;6.82;;;;;;;;;;10297148;28;20084;-69
2023/08/18 00:26:39;;;;;;;9.98;5.90;;;;;;;;;;10297962;28;20083;-69
2023/08/18 00:31:38;;;;;;;8.93;7.47;;;;;;;;;;10292597;28;20076;-69
2023/08/18 00:36:37;;;;;;;7.70;6.50;;;;;;;;;;10281542;28;20080;-69
2023/08/18 00:41:36;;;;;;;10.77;6.30;;;;;;;;;;10296509;28;20079;-69
2023/08/18 00:46:34;;;;;;;7.75;6.38;;;;;;;;;;10297896;28;20071;-69
2023/08/18 00:51:35;;;;;;;9.07;6.47;;;;;;;;;;10296118;28;20540;-69
2023/08/18 00:56:33;;;;;;;10.40;6.60;;;;;;;;;;10278201;28;20088;-69
2023/08/18 01:01:32;;;;;;;11.75;5.90;;;;;;;;;;10294449;28;20079;-69
2023/08/18 01:06:31;;;;;;;8.05;6.00;;;;;;;;;;10296481;28;20497;-69
2023/08/18 01:11:35;;;;;;;11.73;5.95;;;;;;;;;;10295519;28;20080;-68
2023/08/18 01:16:34;;;;;;;6.35;5.75;;;;;;;;;;10294352;28;20485;-69
2023/08/18 01:21:33;;;;;;;7.82;6.25;;;;;;;;;;10295902;28;20049;-69
2023/08/18 01:26:33;;;;;;;8.85;6.40;;;;;;;;;;10278136;28;20075;-69
2023/08/18 01:31:32;;;;;;;8.45;6.40;;;;;;;;;;10293658;28;20084;-69
2023/08/18 01:36:34;;;;;;;6.75;6.05;;;;;;;;;;10296195;28;20056;-69
2023/08/18 01:41:34;;;;;;;7.05;6.38;;;;;;;;;;10294306;28;20061;-69
2023/08/18 01:46:33;;;;;;;8.98;6.93;;;;;;;;;;10294791;28;20056;-69
2023/08/18 01:51:32;;;;;;;6.85;5.80;;;;;;;;;;10294034;28;20068;-69
2023/08/18 01:56:30;;;;;;;14.38;7.10;;;;;;;;;;10295054;28;20083;-69
2023/08/18 02:01:29;;;;;;;12.27;6.38;;;;;;;;;;10289148;28;20095;-69
2023/08/18 02:06:28;;;;;;;9.52;6.60;;;;;;;;;;10293124;28;20068;-69
2023/08/18 02:11:26;;;;;;;7.50;6.00;;;;;;;;;;10274124;28;20068;-69
2023/08/18 02:16:24;;;;;;;7.53;6.35;;;;;;;;;;10291794;28;20521;-69
2023/08/18 02:21:24;;;;;;;10.60;5.97;;;;;;;;;;10289134;28;20072;-69
2023/08/18 02:26:23;;;;;;;6.40;5.38;;;;;;;;;;10273910;28;20053;-69
2023/08/18 02:31:22;;;;;;;8.13;5.40;;;;;;;;;;10291330;28;20077;-69
2023/08/18 02:36:20;;;;;;;6.57;5.97;;;;;;;;;;10292968;28;20307;-69
2023/08/18 02:41:19;;;;;;;9.27;5.90;;;;;;;;;;10292269;28;20497;-69
2023/08/18 02:46:19;;;;;;;7.28;5.60;;;;;;;;;;10290417;28;20144;-68
2023/08/18 02:51:18;;;;;;;5.72;5.28;;;;;;;;;;10288901;28;20080;-69
2023/08/18 02:56:16;;;;;;;10.90;6.10;;;;;;;;;;10290518;28;20084;-69
2023/08/18 03:01:16;;;;;;;6.57;5.13;;;;;;;;;;10292618;28;20068;-69
2023/08/18 03:06:14;;;;;;;9.63;6.15;;;;;;;;;;10291135;28;20075;-69
2023/08/18 03:11:12;;;;;;;6.72;5.47;;;;;;;;;;10290801;28;20065;-69
2023/08/18 03:16:11;;;;;;;7.05;5.93;;;;;;;;;;10286867;28;20532;-69
2023/08/18 03:21:11;;;;;;;9.13;6.07;;;;;;;;;;10289812;28;20055;-69
2023/08/18 03:26:09;;;;;;;9.80;6.20;;;;;;;;;;10290562;28;20087;-69
2023/08/18 03:31:08;;;;;;;8.73;6.05;;;;;;;;;;10290378;28;20075;-68
2023/08/18 03:36:07;;;;;;;7.63;6.72;;;;;;;;;;10291601;28;20088;-68
2023/08/18 03:41:08;;;;;;;8.75;5.75;;;;;;;;;;10287933;28;20072;-68
2023/08/18 03:46:16;;;;;;;7.40;6.15;;;;;;;;;;10290190;28;20078;-69
2023/08/18 03:51:16;;;;;;;6.35;5.50;;;;;;;;;;10274031;28;20072;-68
2023/08/18 03:56:17;;;;;;;8.30;5.70;;;;;;;;;;10287649;28;20743;-68
2023/08/18 04:01:15;;;;;;;8.05;5.97;;;;;;;;;;10288127;28;20103;-68
2023/08/18 04:06:14;;;;;;;7.85;6.45;;;;;;;;;;10276154;28;20553;-69
2023/08/18 04:11:13;;;;;;;8.20;6.28;;;;;;;;;;10289315;28;20076;-69
2023/08/18 04:16:13;;;;;;;8.80;5.68;;;;;;;;;;10288765;28;20083;-69
2023/08/18 04:21:12;;;;;;;10.20;7.13;;;;;;;;;;10273913;28;20160;-68
2023/08/18 04:26:12;;;;;;;9.23;7.18;;;;;;;;;;10290130;28;20076;-69
2023/08/18 04:31:11;;;;;;;8.88;6.72;;;;;;;;;;10274673;28;20082;-69
2023/08/18 04:36:16;;;;;;;9.32;6.10;;;;;;;;;;10285013;28;20077;-69
2023/08/18 04:41:14;;;;;;;10.02;6.28;;;;;;;;;;10266868;28;20068;-68
2023/08/18 04:46:13;;;;;;;11.00;7.60;;;;;;;;;;10271529;28;20073;-69
2023/08/18 04:51:12;;;;;;;10.45;6.97;;;;;;;;;;10274558;28;20087;-68
2023/08/18 04:56:12;;;;;;;6.47;5.88;;;;;;;;;;10295862;28;20480;-68
2023/08/18 05:01:10;;;;;;;9.52;6.82;;;;;;;;;;10296987;28;20076;-68
2023/08/18 05:06:12;;;;;;;12.35;6.18;;;;;;;;;;10279933;28;20045;-67
2023/08/18 05:11:12;;;;;;;9.10;7.60;;;;;;;;;;10292775;28;20071;-69
2023/08/18 05:16:10;;;;;;;7.63;6.80;;;;;;;;;;10292980;28;20075;-69
2023/08/18 05:21:08;;;;;;;10.77;6.75;;;;;;;;;;10292665;28;20075;-68
2023/08/18 05:26:07;;;;;;;12.77;7.47;;;;;;;;;;10295199;28;20072;-69
2023/08/18 05:31:08;;;;;;;7.10;6.45;;;;;;;;;;10296042;28;20056;-69
2023/08/18 05:36:07;;;;;;;12.77;8.75;;;;;;;;;;10296327;28;20548;-68
2023/08/18 05:41:07;;;;;;;8.57;7.13;;;;;;;;;;10294490;28;20067;-70
2023/08/18 05:46:10;;;;;;;9.93;6.67;;;;;;;;;;10292557;28;20064;-69
2023/08/18 05:51:08;;;;;;;11.63;7.75;;;;;;;;;;10291359;28;20076;-68
2023/08/18 05:56:06;;;;;;;12.25;6.88;;;;;;;;;;10289418;28;20099;-69
2023/08/18 06:01:05;;;;;;;11.23;6.82;;;;;;;;;;10294851;28;20057;-69
2023/08/18 06:06:04;;;;;;;12.30;8.27;;;;;;;;;;10293338;28;20067;-69
2023/08/18 06:11:04;;;;;;;10.52;7.05;;;;;;;;;;10292928;28;20438;-69
2023/08/18 06:16:05;;;;;;;9.77;6.72;;;;;;;;;;10293704;28;20073;-69
2023/08/18 06:21:05;;;;;;;11.45;6.43;;;;;;;;;;10291702;28;20077;-70
2023/08/18 06:26:06;;;;;;;9.98;7.75;;;;;;;;;;10291362;28;20080;-70
2023/08/18 06:31:04;;;;;;;8.70;7.20;;;;;;;;;;10294121;28;20069;-69
2023/08/18 06:36:03;;;;;;;9.15;5.88;;;;;;;;;;10292573;28;20081;-70
2023/08/18 06:41:02;;;;;;;8.63;6.22;;;;;;;;;;10292688;28;20072;-68
2023/08/18 06:46:01;;;;;;;7.15;6.25;;;;;;;;;;10293341;28;20067;-69
2023/08/18 06:50:59;;;;;;;10.85;6.10;;;;;;;;;;10289682;28;20466;-69
2023/08/18 06:55:57;;;;;;;13.38;6.70;;;;;;;;;;10291450;28;20076;-68
2023/08/18 07:01:03;;;;;;;9.00;6.43;;;;;;;;;;10279230;28;20068;-69
2023/08/18 07:06:03;;;;;;;7.70;6.00;;;;;;;;;;10280487;28;20060;-69
2023/08/18 07:11:02;;;;;;;6.93;5.70;;;;;;;;;;10284596;28;20099;-68
2023/08/18 07:16:02;;;;;;;8.68;5.50;;;;;;;;;;10285689;28;20334;-69
2023/08/18 07:21:00;;;;;;;11.45;5.35;;;;;;;;;;10269507;28;20068;-69
2023/08/18 07:25:59;;;;;;;6.43;5.22;;;;;;;;;;10267747;28;20076;-69
2023/08/18 07:31:04;;;;;;;8.10;5.00;;;;;;;;;;10274568;28;20082;-69
2023/08/18 07:36:02;;;;;;;7.30;4.47;;;;;;;;;;10288549;28;20084;-67
2023/08/18 07:41:01;;;;;;;5.78;5.18;;;;;;;;;;10283671;28;20076;-70
2023/08/18 07:45:59;;;;;;;9.65;4.70;;;;;;;;;;10275012;28;20080;-69
2023/08/18 07:50:58;;;;;;;9.75;4.55;;;;;;;;;;10284333;28;20339;-69
2023/08/18 07:55:57;;;;;;;8.85;4.15;;;;;;;;;;10273782;28;22349;-69
2023/08/18 08:00:56;;;;;;;7.57;4.30;;;;;;;;;;10282714;28;20064;-70
2023/08/18 08:05:59;;;;;;;6.97;4.33;;;;;;;;;;10277282;28;20065;-70
2023/08/18 08:10:57;;;;;;;5.20;4.53;;;;;;;;;;10257365;28;20085;-70
2023/08/18 08:15:56;;;;;;;10.32;3.55;;;;;;;;;;10283181;28;20529;-69
2023/08/18 08:20:54;;;;;;;7.43;4.25;;;;;;;;;;10286770;28;20505;-68
2023/08/18 08:25:53;;;;;;;4.63;4.22;;;;;;;;;;10286556;28;20087;-68
2023/08/18 08:30:54;;;;;;;7.88;4.32;;;;;;;;;;10292333;28;20076;-69
2023/08/18 08:35:52;;;;;;;8.73;4.18;;;;;;;;;;10292627;28;20509;-69
2023/08/18 08:40:54;;;;;;;4.82;4.15;;;;;;;;;;10293386;28;19952;-71
2023/08/18 08:45:54;;;;;;;6.93;4.50;;;;;;;;;;10289159;28;20073;-70
2023/08/18 08:50:55;;;;;;;6.03;4.30;;;;;;;;;;10276080;28;20060;-69
2023/08/18 08:55:54;;;;;;;8.27;5.20;;;;;;;;;;10265645;28;20517;-70
2023/08/18 09:00:54;;;;;;;10.27;4.15;;;;;;;;;;10264753;28;20064;-70
2023/08/18 09:05:52;;;;;;;12.30;3.97;;;;;;;;;;10263618;28;20303;-70
2023/08/18 09:10:51;;;;;;;6.05;4.18;;;;;;;;;;10291461;28;20071;-69
2023/08/18 09:15:49;;;;;;;5.55;4.10;;;;;;;;;;10292754;28;20076;-69
2023/08/18 09:20:49;;;;;;;8.05;4.00;;;;;;;;;;10288370;28;20085;-69
2023/08/18 09:25:50;;;;;;;7.80;3.80;;;;;;;;;;10291860;28;20072;-69
2023/08/18 09:30:48;;;;;;;7.72;4.45;;;;;;;;;;10288471;28;20072;-70
2023/08/18 09:35:59;;;;;;;3.70;3.40;;;;;;;;;;10288896;28;20501;-69
2023/08/18 09:40:57;;;;;;;10.00;4.15;;;;;;;;;;10289944;28;20091;-69
2023/08/18 09:45:57;;;;;;;7.13;4.20;;;;;;;;;;10292579;28;20087;-68
2023/08/18 09:50:58;;;;;;;8.68;4.05;;;;;;;;;;10289000;28;20343;-70
2023/08/18 09:55:58;;;;;;;8.70;4.35;;;;;;;;;;10289008;28;20489;-70
2023/08/18 10:00:57;;;;;;;6.07;3.83;;;;;;;;;;10286283;28;20072;-70
2023/08/18 10:05:57;;;;;;;5.68;4.00;;;;;;;;;;10287903;28;20073;-69
2023/08/18 10:10:56;;;;;;;11.05;4.53;;;;;;;;;;10289156;28;20067;-69
2023/08/18 10:15:57;;;;;;;9.23;4.88;;;;;;;;;;10290001;28;20068;-70
2023/08/18 10:20:56;;;;;;;5.90;4.78;;;;;;;;;;10290306;28;20068;-70
2023/08/18 10:25:55;;;;;;;12.13;5.32;;;;;;;;;;10287486;28;20091;-70
2023/08/18 10:30:59;;;;;;;8.13;4.97;;;;;;;;;;10288320;28;20094;-69
2023/08/18 10:35:58;;;;;;;9.55;4.53;;;;;;;;;;10272762;28;20426;-69
2023/08/18 10:40:56;;;;;;;5.78;4.90;;;;;;;;;;10284406;28;20068;-68
2023/08/18 10:45:59;;;;;;;9.75;3.75;;;;;;;;;;10280163;28;20084;-69
2023/08/18 10:50:58;;;;;;;4.80;4.38;;;;;;;;;;10288579;28;20079;-71
2023/08/18 10:55:59;;;;;;;7.25;4.18;;;;;;;;;;10292049;28;20465;-68
2023/08/18 11:00:58;;;;;;;6.18;4.30;;;;;;;;;;10271651;28;20067;-69
2023/08/18 11:05:59;;;;;;;9.10;5.28;;;;;;;;;;10288849;28;20525;-69
2023/08/18 11:11:00;;;;;;;9.23;5.10;;;;;;;;;;10281230;28;20532;-70
2023/08/18 11:16:01;;;;;;;13.57;5.95;;;;;;;;;;10279158;28;20083;-69
2023/08/18 11:21:03;;;;;;;8.30;5.20;;;;;;;;;;10276825;28;20099;-69
2023/08/18 11:26:03;;;;;;;6.88;5.22;;;;;;;;;;10264945;28;20093;-69
2023/08/18 11:31:05;;;;;;;11.52;5.68;;;;;;;;;;10286996;28;20076;-68
2023/08/18 11:36:03;;;;;;;9.63;4.87;;;;;;;;;;10279741;28;20427;-69
2023/08/18 11:41:02;;;;;;;7.00;4.90;;;;;;;;;;10287942;28;20076;-71
2023/08/18 11:46:01;;;;;;;10.50;5.55;;;;;;;;;;10287446;28;20458;-71
2023/08/18 11:51:00;;;;;;;9.23;5.90;;;;;;;;;;10285038;28;20079;-71
2023/08/18 11:55:59;;;;;;;8.07;5.18;;;;;;;;;;10285243;28;20088;-71
2023/08/18 12:00:58;;;;;;;7.47;5.10;;;;;;;;;;10289551;28;20075;-69
2023/08/18 12:05:57;;;;;;;8.45;4.57;;;;;;;;;;10295239;28;20072;-69
2023/08/18 12:10:59;;;;;;;8.55;4.93;;;;;;;;;;10294551;28;20071;-68
2023/08/18 12:15:58;;;;;;;6.05;5.25;;;;;;;;;;10289314;28;20064;-67
2023/08/18 12:20:56;;;;;;;9.13;5.40;;;;;;;;;;10294546;28;20083;-65
2023/08/18 12:25:54;;;;;;;10.75;4.20;;;;;;;;;;10291300;28;20083;-64
2023/08/18 12:30:54;;;;;;;10.27;6.68;;;;;;;;;;10298611;28;20076;-66
2023/08/18 12:35:52;;;;;;;18.05;5.78;;;;;;;;;;10291507;28;20076;-65
2023/08/18 12:40:53;;;;;;;13.02;6.63;;;;;;;;;;10294197;28;20064;-64
2023/08/18 12:45:51;;;;;;;21.17;8.07;;;;;;;;;;10295302;28;20083;-64
2023/08/18 12:50:50;;;;;;;15.77;6.63;;;;;;;;;;10291765;28;20522;-64
2023/08/18 12:55:49;;;;;;;13.65;6.68;;;;;;;;;;10289494;28;20175;-64
2023/08/18 13:00:47;;;;;;;12.32;6.10;;;;;;;;;;10293008;28;20073;-63
2023/08/18 13:05:45;;;;;;;18.95;8.70;;;;;;;;;;10290303;28;20072;-63
2023/08/18 13:10:45;;;;;;;15.73;5.63;;;;;;;;;;10292655;28;20087;-63
2023/08/18 13:15:44;;;;;;;16.15;5.22;;;;;;;;;;10288933;28;20492;-63
2023/08/18 13:20:42;;;;;;;8.38;5.15;;;;;;;;;;10291844;28;20573;-63
2023/08/18 13:25:40;;;;;;;11.45;5.18;;;;;;;;;;10279150;28;20072;-65
2023/08/18 13:30:40;;;;;;;7.60;4.28;;;;;;;;;;10281459;28;20060;-65
2023/08/18 13:35:38;;;;;;;10.10;4.32;;;;;;;;;;10286792;28;20061;-64
2023/08/18 13:40:36;;;;;;;9.00;4.97;;;;;;;;;;10283970;28;20071;-63
2023/08/18 13:45:34;;;;;;;6.85;4.40;;;;;;;;;;10287141;28;20442;-64
2023/08/18 13:50:34;;;;;;;10.68;5.75;;;;;;;;;;10282128;28;20080;-64
2023/08/18 13:55:32;;;;;;;4.80;4.40;;;;;;;;;;10286201;28;20087;-65
2023/08/18 14:00:32;;;;;;;16.02;5.85;;;;;;;;;;10274799;28;20071;-64
2023/08/18 14:05:34;;;;;;;10.98;5.93;;;;;;;;;;10289027;28;20061;-63
2023/08/18 14:10:33;;;;;;;12.17;5.63;;;;;;;;;;10290961;28;20072;-64
2023/08/18 14:15:31;;;;;;;10.07;4.90;;;;;;;;;;10293351;28;20071;-63
2023/08/18 14:20:30;;;;;;;6.35;4.47;;;;;;;;;;10290673;28;20077;-64
2023/08/18 14:25:29;;;;;;;7.03;4.93;;;;;;;;;;10291296;28;20077;-64
2023/08/18 14:30:28;;;;;;;9.45;5.22;;;;;;;;;;10290914;28;20083;-64
2023/08/18 14:35:26;;;;;;;10.55;5.90;;;;;;;;;;10289482;28;20072;-65
2023/08/18 14:40:24;;;;;;;5.50;4.97;;;;;;;;;;10291931;28;20076;-64
2023/08/18 14:45:24;;;;;;;11.88;5.22;;;;;;;;;;10293201;28;20072;-64
2023/08/18 14:50:22;;;;;;;10.90;4.95;;;;;;;;;;10292966;28;20076;-64
2023/08/18 14:55:20;;;;;;;9.95;5.15;;;;;;;;;;10291840;28;20076;-64
2023/08/18 15:00:18;;;;;;;8.07;4.88;;;;;;;;;;10289245;28;20087;-64
2023/08/18 15:05:18;;;;;;;9.95;5.78;;;;;;;;;;10290817;28;20315;-64
2023/08/18 15:10:16;;;;;;;9.40;5.30;;;;;;;;;;10291735;28;20482;-64
2023/08/18 15:15:15;;;;;;;9.52;5.60;;;;;;;;;;10292046;28;20064;-64
2023/08/18 15:20:13;;;;;;;19.67;6.28;;;;;;;;;;10288882;28;20072;-64
2023/08/18 15:25:12;;;;;;;13.30;7.00;;;;;;;;;;10286932;28;20103;-64
2023/08/18 15:30:11;;;;;;;15.13;6.60;;;;;;;;;;10290986;28;20084;-64
2023/08/18 15:35:10;;;;;;;23.58;12.18;;;;;;;;;;10278439;28;20068;-64
2023/08/18 15:40:09;;;;;;;47.83;12.23;;;;;;;;;;10279216;28;20072;-63
2023/08/18 15:45:09;;;;;;;15.55;6.07;;;;;;;;;;10289814;28;20576;-64
2023/08/18 15:50:08;;;;;;;13.38;5.35;;;;;;;;;;10290763;28;20091;-63
2023/08/18 15:55:06;;;;;;;15.80;6.07;;;;;;;;;;10277916;28;20056;-64
2023/08/18 16:00:05;;;;;;;14.30;4.88;;;;;;;;;;10271229;28;20132;-63
2023/08/18 16:05:14;;;;;;;7.20;4.65;;;;;;;;;;10275451;28;20072;-63
2023/08/18 16:10:12;;;;;;;12.70;5.10;;;;;;;;;;10270012;28;20117;-63
2023/08/18 16:15:10;;;;;;;10.13;4.75;;;;;;;;;;10287654;28;20068;-63
2023/08/18 16:20:27;;;;;;;11.48;5.13;;;;;;;;;;10282219;28;20091;-64
2023/08/18 16:25:25;;;;;;;9.77;5.15;;;;;;;;;;10267821;28;20069;-64
2023/08/18 16:30:24;;;;;;;10.05;4.95;;;;;;;;;;10287943;28;20092;-64
2023/08/18 16:35:22;;;;;;;10.25;5.93;;;;;;;;;;10276778;28;20509;-63
2023/08/18 16:40:23;;;;;;;11.70;6.60;;;;;;;;;;10287229;28;20525;-63
2023/08/18 16:45:21;;;;;;;7.82;4.32;;;;;;;;;;10284376;28;20143;-65
2023/08/18 16:50:19;;;;;;;6.30;4.20;;;;;;;;;;10280843;28;20107;-62
2023/08/18 16:55:18;;;;;;;9.80;4.97;;;;;;;;;;10283069;28;20064;-63
2023/08/18 17:00:18;;;;;;;8.52;7.57;;;;;;;;;;10280480;28;20548;-63
2023/08/18 17:05:19;;;;;;;5.28;4.78;;;;;;;;;;10291446;28;20072;-63
2023/08/18 17:10:17;;;;;;;7.97;5.72;;;;;;;;;;10294241;28;20068;-63
2023/08/18 17:15:15;;;;;;;8.40;3.83;;;;;;;;;;10286619;28;20079;-64
2023/08/18 17:20:15;;;;;;;11.80;6.90;;;;;;;;;;10286441;28;20076;-64
2023/08/18 17:25:13;;;;;;;16.60;4.55;;;;;;;;;;10281607;28;20107;-63
2023/08/18 17:30:12;;;;;;;9.65;4.82;;;;;;;;;;10291013;28;20079;-63
2023/08/18 17:35:10;;;;;;;15.50;5.03;;;;;;;;;;10293426;28;20064;-64
2023/08/18 17:40:10;;;;;;;7.20;3.75;;;;;;;;;;10294829;28;20094;-63
2023/08/18 17:45:10;;;;;;;10.27;4.28;;;;;;;;;;10293643;28;20083;-64
2023/08/18 17:50:08;;;;;;;8.93;4.60;;;;;;;;;;10292372;28;20079;-63
2023/08/18 17:55:07;;;;;;;5.65;3.85;;;;;;;;;;10283564;28;20088;-63
2023/08/18 18:00:08;;;;;;;4.95;4.05;;;;;;;;;;10280316;28;20083;-63
2023/08/18 18:05:08;;;;;;;5.95;3.22;;;;;;;;;;10281490;28;20076;-63
2023/08/18 18:10:08;;;;;;;9.25;7.32;;;;;;;;;;10284004;28;20076;-63
2023/08/18 18:15:08;;;;;;;6.00;3.97;;;;;;;;;;10285059;28;20068;-63
2023/08/18 18:20:08;;;;;;;7.13;6.10;;;;;;;;;;10291774;28;20084;-63
2023/08/18 18:25:06;;;;;;;11.25;4.20;;;;;;;;;;10291037;28;20096;-62
2023/08/18 18:30:05;;;;;;;7.20;3.67;;;;;;;;;;10282529;28;20081;-62
2023/08/18 18:35:05;;;;;;;7.93;6.43;;;;;;;;;;10292315;28;20076;-62
2023/08/18 18:40:04;;;;;;;12.60;4.30;;;;;;;;;;10289502;28;20072;-63
2023/08/18 18:45:03;;;;;;;6.78;4.82;;;;;;;;;;10290428;28;20100;-63
2023/08/18 18:50:01;;;;;;;9.32;4.68;;;;;;;;;;10292475;28;20098;-63
2023/08/18 18:55:01;;;;;;;9.65;4.88;;;;;;;;;;10290732;28;20068;-63
2023/08/18 18:59:59;;;;;;;5.03;3.95;;;;;;;;;;10289309;28;20076;-63
2023/08/18 19:04:57;;;;;;;7.68;5.00;;;;;;;;;;10291824;28;20080;-63
2023/08/18 19:09:56;;;;;;;17.80;6.68;;;;;;;;;;10291811;28;20076;-63
2023/08/18 19:14:55;;;;;;;9.52;5.22;;;;;;;;;;10289036;28;20087;-63
2023/08/18 19:20:00;;;;;;;12.05;4.88;;;;;;;;;;10287379;28;20080;-63
2023/08/18 19:24:58;;;;;;;4.65;4.15;;;;;;;;;;10286794;28;20510;-63
2023/08/18 19:29:58;;;;;;;5.53;5.00;;;;;;;;;;10290920;28;20079;-63
2023/08/18 19:34:57;;;;;;;8.52;4.10;;;;;;;;;;10291943;28;20080;-63
2023/08/18 19:39:55;;;;;;;6.82;5.57;;;;;;;;;;10289863;28;20072;-63
2023/08/18 19:44:55;;;;;;;7.45;4.70;;;;;;;;;;10282290;28;20084;-62
2023/08/18 19:49:54;;;;;;;7.55;4.20;;;;;;;;;;10283739;28;20540;-63
2023/08/18 19:54:52;;;;;;;10.13;4.25;;;;;;;;;;10286634;28;20076;-63
2023/08/18 19:59:51;;;;;;;4.80;4.22;;;;;;;;;;10277772;28;20072;-63
2023/08/18 20:04:49;;;;;;;12.43;10.43;;;;;;;;;;10278663;28;20072;-64
2023/08/18 20:09:49;;;;;;;7.43;4.07;;;;;;;;;;10286638;28;20068;-63
2023/08/18 20:14:47;;;;;;;8.77;5.03;;;;;;;;;;10286226;28;20080;-62
2023/08/18 20:19:45;;;;;;;6.65;5.38;;;;;;;;;;10290062;28;20075;-64
2023/08/18 20:24:45;;;;;;;5.78;4.90;;;;;;;;;;10293229;28;20084;-62
2023/08/18 20:29:44;;;;;;;11.50;5.18;;;;;;;;;;10293628;28;20083;-63
2023/08/18 20:34:42;;;;;;;6.80;4.75;;;;;;;;;;10296757;28;20505;-63
2023/08/18 20:39:41;;;;;;;8.60;5.30;;;;;;;;;;10292720;28;20072;-62
2023/08/18 20:44:40;;;;;;;7.30;4.82;;;;;;;;;;10283454;28;20124;-63
2023/08/18 20:49:39;;;;;;;6.93;4.50;;;;;;;;;;10295800;28;20069;-63
2023/08/18 20:54:41;;;;;;;10.40;9.37;;;;;;;;;;10296722;28;20317;-63
2023/08/18 20:59:39;;;;;;;9.48;4.90;;;;;;;;;;10294428;28;20077;-63
2023/08/18 21:04:37;;;;;;;10.23;4.90;;;;;;;;;;10285838;28;20494;-63
2023/08/18 21:09:36;;;;;;;6.03;5.45;;;;;;;;;;10295637;28;20068;-64
2023/08/18 21:14:35;;;;;;;6.05;4.70;;;;;;;;;;10293310;28;20068;-63
2023/08/18 21:19:33;;;;;;;9.05;5.28;;;;;;;;;;10292671;28;20069;-64
2023/08/18 21:24:31;;;;;;;8.73;5.22;;;;;;;;;;10283389;28;20080;-62
2023/08/18 21:29:31;;;;;;;11.13;5.82;;;;;;;;;;10294204;28;20064;-64
2023/08/18 21:34:29;;;;;;;10.85;6.38;;;;;;;;;;10291775;28;20072;-63
2023/08/18 21:39:27;;;;;;;8.43;4.57;;;;;;;;;;10294538;28;20064;-63
2023/08/18 21:44:25;;;;;;;7.38;5.15;;;;;;;;;;10294750;28;20080;-62
2023/08/18 21:49:25;;;;;;;7.47;6.28;;;;;;;;;;10289991;28;20071;-63
2023/08/18 21:54:23;;;;;;;8.73;5.65;;;;;;;;;;10290703;28;20072;-63
2023/08/18 21:59:22;;;;;;;6.47;5.70;;;;;;;;;;10283892;28;20088;-61
2023/08/18 22:04:20;;;;;;;7.10;5.28;;;;;;;;;;10294542;28;20078;-63
2023/08/18 22:09:20;;;;;;;6.75;5.10;;;;;;;;;;10290832;28;20068;-63
2023/08/18 22:14:19;;;;;;;6.68;5.25;;;;;;;;;;10291644;28;20532;-63
2023/08/18 22:19:18;;;;;;;9.75;5.75;;;;;;;;;;10292813;28;20080;-63
2023/08/18 22:24:16;;;;;;;8.25;5.05;;;;;;;;;;10285838;28;20532;-63
2023/08/18 22:29:16;;;;;;;8.00;6.05;;;;;;;;;;10282866;28;20075;-62
2023/08/18 22:34:14;;;;;;;8.35;5.00;;;;;;;;;;10290491;28;20455;-64
2023/08/18 22:39:12;;;;;;;8.55;5.05;;;;;;;;;;10289959;28;20514;-63
2023/08/18 22:44:10;;;;;;;7.57;5.55;;;;;;;;;;10289502;28;20083;-63
2023/08/18 22:49:10;;;;;;;15.85;6.32;;;;;;;;;;10286709;28;20091;-63
2023/08/18 22:54:08;;;;;;;12.52;6.10;;;;;;;;;;10289155;28;20110;-62
2023/08/18 22:59:06;;;;;;;8.05;5.45;;;;;;;;;;10287606;28;20568;-63
2023/08/18 23:04:06;;;;;;;6.60;4.55;;;;;;;;;;10284483;28;20518;-63
2023/08/18 23:09:07;;;;;;;7.47;5.28;;;;;;;;;;10286490;28;20076;-63
2023/08/18 23:14:06;;;;;;;10.63;5.80;;;;;;;;;;10282804;28;20065;-63
2023/08/18 23:19:04;;;;;;;6.05;4.25;;;;;;;;;;10283176;28;20068;-63
2023/08/18 23:24:02;;;;;;;5.82;4.85;;;;;;;;;;10274958;28;20087;-63
2023/08/18 23:29:02;;;;;;;9.90;4.35;;;;;;;;;;10282386;28;20542;-63
2023/08/18 23:34:00;;;;;;;4.28;3.88;;;;;;;;;;10284260;28;20076;-63
2023/08/18 23:39:00;;;;;;;12.57;5.35;;;;;;;;;;10283465;28;20517;-64
2023/08/18 23:43:59;;;;;;;4.88;3.90;;;;;;;;;;10277177;28;20087;-63
2023/08/18 23:48:58;;;;;;;10.68;4.13;;;;;;;;;;10285198;28;20076;-62
2023/08/18 23:53:56;;;;;;;8.00;4.40;;;;;;;;;;10276327;28;20076;-62
2023/08/18 23:58:55;;;;;;;6.78;4.15;;;;;;;;;;10287252;28;20076;-63
